createdAt,value
2019-04-22T00:00:36.783Z,932.62
2019-04-22T00:01:36.186Z,932.55
2019-04-22T00:02:40.012Z,932.57
2019-04-22T00:03:41.598Z,932.56
2019-04-22T00:04:47.503Z,932.60
2019-04-22T00:05:56.242Z,932.52
2019-04-22T00:06:58.169Z,932.53
2019-04-22T00:08:03.454Z,932.49
2019-04-22T00:09:51.736Z,932.48
2019-04-22T00:11:04.591Z,932.48
2019-04-22T00:12:01.870Z,932.45
2019-04-22T00:13:00.051Z,932.42
2019-04-22T00:13:56.975Z,932.45
2019-04-22T00:14:52.767Z,932.39
2019-04-22T00:15:56.525Z,932.40
2019-04-22T00:16:58.831Z,932.39
2019-04-22T00:18:07.866Z,932.40
2019-04-22T00:20:04.734Z,932.38
2019-04-22T00:20:58.230Z,932.38
2019-04-22T00:22:05.694Z,932.32
2019-04-22T00:22:56.633Z,932.33
2019-04-22T00:23:59.874Z,932.33
2019-04-22T00:25:03.496Z,932.28
2019-04-22T00:26:04.041Z,932.32
2019-04-22T00:27:00.292Z,932.31
2019-04-22T00:28:02.713Z,932.28
2019-04-22T00:29:26.999Z,932.31
2019-04-22T00:30:53.766Z,932.24
2019-04-22T00:32:03.452Z,932.30
2019-04-22T00:32:58.940Z,932.26
2019-04-22T00:33:57.858Z,932.25
2019-04-22T00:34:53.653Z,932.25
2019-04-22T00:35:54.816Z,932.22
2019-04-22T00:36:54.916Z,932.23
2019-04-22T00:38:07.712Z,932.21
2019-04-22T00:38:59.158Z,932.23
2019-04-22T00:39:57.604Z,932.22
2019-04-22T00:41:04.368Z,932.20
2019-04-22T00:42:03.271Z,932.22
2019-04-22T00:43:00.670Z,932.20
2019-04-22T00:44:02.846Z,932.22
2019-04-22T00:45:03.255Z,932.20
2019-04-22T00:45:55.879Z,932.18
2019-04-22T00:47:01.836Z,932.18
2019-04-22T00:48:00.963Z,932.14
2019-04-22T00:49:47.064Z,932.17
2019-04-22T00:50:12.728Z,932.11
2019-04-22T00:51:25.274Z,932.09
2019-04-22T00:52:03.283Z,932.05
2019-04-22T00:53:04.427Z,932.00
2019-04-22T00:53:57.783Z,932.01
2019-04-22T00:55:00.571Z,932.00
2019-04-22T00:55:56.909Z,931.99
2019-04-22T00:57:01.524Z,931.98
2019-04-22T00:58:05.200Z,931.98
2019-04-22T00:58:56.609Z,931.92
2019-04-22T01:00:00.295Z,931.91
2019-04-22T01:01:04.739Z,931.95
2019-04-22T01:02:00.912Z,931.90
2019-04-22T01:03:07.489Z,931.92
2019-04-22T01:04:07.138Z,931.90
2019-04-22T01:05:00.877Z,931.94
2019-04-22T01:05:55.417Z,931.91
2019-04-22T01:06:57.540Z,931.93
2019-04-22T01:08:00.532Z,931.94
2019-04-22T01:09:04.377Z,931.95
2019-04-22T01:09:58.861Z,931.91
2019-04-22T01:11:03.043Z,931.93
2019-04-22T01:12:01.455Z,931.90
2019-04-22T01:12:57.252Z,931.90
2019-04-22T01:13:55.237Z,931.92
2019-04-22T01:15:58.580Z,931.82
2019-04-22T01:17:01.540Z,931.81
2019-04-22T01:17:57.780Z,931.80
2019-04-22T01:18:53.849Z,931.78
2019-04-22T01:20:11.148Z,931.79
2019-04-22T01:22:06.440Z,931.70
2019-04-22T01:22:56.288Z,931.66
2019-04-22T01:23:52.247Z,931.69
2019-04-22T01:24:57.584Z,931.67
2019-04-22T01:25:55.057Z,931.67
2019-04-22T01:26:49.489Z,931.64
2019-04-22T01:27:48.859Z,931.63
2019-04-22T01:28:46.422Z,931.58
2019-04-22T01:29:46.774Z,931.51
2019-04-22T01:30:44.110Z,931.62
2019-04-22T01:31:36.627Z,931.54
2019-04-22T01:32:38.446Z,931.54
2019-04-22T01:33:38.968Z,931.55
2019-04-22T01:34:45.698Z,931.59
2019-04-22T01:35:56.869Z,931.58
2019-04-22T01:36:52.888Z,931.54
2019-04-22T01:37:49.556Z,931.56
2019-04-22T01:38:58.197Z,931.53
2019-04-22T01:39:57.293Z,931.54
2019-04-22T01:41:02.844Z,931.49
2019-04-22T01:41:59.949Z,931.51
2019-04-22T01:43:01.880Z,931.55
2019-04-22T01:44:05.788Z,931.48
2019-04-22T01:44:57.027Z,931.48
2019-04-22T01:46:02.297Z,931.45
2019-04-22T01:47:00.222Z,931.47
2019-04-22T01:47:57.723Z,931.43
2019-04-22T01:48:59.970Z,931.46
2019-04-22T01:49:59.970Z,931.38
2019-04-22T01:50:54.750Z,931.38
2019-04-22T01:53:08.403Z,931.33
2019-04-22T01:54:05.222Z,931.31
2019-04-22T01:55:04.513Z,931.26
2019-04-22T01:56:02.033Z,931.23
2019-04-22T01:56:59.944Z,931.24
2019-04-22T01:57:53.930Z,931.26
2019-04-22T01:58:50.223Z,931.19
2019-04-22T01:59:53.209Z,931.23
2019-04-22T02:01:13.595Z,931.24
2019-04-22T02:02:00.574Z,931.22
2019-04-22T02:02:58.589Z,931.18
2019-04-22T02:04:02.769Z,931.22
2019-04-22T02:04:59.651Z,931.23
2019-04-22T02:05:59.521Z,931.20
2019-04-22T02:07:02.157Z,931.18
2019-04-22T02:08:02.609Z,931.15
2019-04-22T02:09:02.039Z,931.17
2019-04-22T02:09:56.138Z,931.17
2019-04-22T02:11:01.043Z,931.12
2019-04-22T02:12:02.992Z,931.12
2019-04-22T02:13:01.990Z,931.16
2019-04-22T02:13:56.560Z,931.11
2019-04-22T02:14:59.434Z,931.09
2019-04-22T02:16:01.949Z,931.06
2019-04-22T02:17:06.488Z,931.04
2019-04-22T02:18:01.399Z,931.04
2019-04-22T02:19:00.895Z,931.02
2019-04-22T02:19:57.567Z,931.04
2019-04-22T02:20:58.005Z,930.98
2019-04-22T02:21:54.090Z,931.00
2019-04-22T02:23:15.899Z,930.98
2019-04-22T02:23:55.185Z,931.00
2019-04-22T02:25:00.441Z,930.98
2019-04-22T02:26:02.452Z,931.02
2019-04-22T02:26:58.185Z,931.01
2019-04-22T02:28:08.739Z,931.02
2019-04-22T02:28:55.173Z,931.01
2019-04-22T02:29:52.303Z,930.99
2019-04-22T02:33:25.143Z,930.99
2019-04-22T02:35:07.590Z,930.97
2019-04-22T02:36:19.199Z,930.95
2019-04-22T02:37:09.944Z,930.95
2019-04-22T02:38:07.725Z,930.95
2019-04-22T02:39:05.694Z,930.95
2019-04-22T02:40:03.633Z,930.90
2019-04-22T02:42:03.016Z,930.91
2019-04-22T02:43:20.941Z,930.91
2019-04-22T02:45:23.292Z,930.90
2019-04-22T02:47:09.795Z,930.89
2019-04-22T02:48:10.404Z,930.85
2019-04-22T02:49:11.224Z,930.86
2019-04-22T02:52:06.433Z,930.78
2019-04-22T02:53:04.773Z,930.76
2019-04-22T02:55:08.213Z,930.78
2019-04-22T02:56:15.612Z,930.79
2019-04-22T02:57:04.330Z,930.71
2019-04-22T02:57:57.925Z,930.70
2019-04-22T02:59:14.390Z,930.74
2019-04-22T03:00:09.694Z,930.71
2019-04-22T03:01:06.084Z,930.68
2019-04-22T03:02:21.348Z,930.67
2019-04-22T03:04:04.431Z,930.61
2019-04-22T03:06:45.950Z,930.62
2019-04-22T03:08:10.831Z,930.61
2019-04-22T03:09:03.435Z,930.61
2019-04-22T03:10:09.107Z,930.54
2019-04-22T03:12:11.563Z,930.55
2019-04-22T03:13:01.126Z,930.52
2019-04-22T03:14:13.258Z,930.55
2019-04-22T03:15:06.242Z,930.55
2019-04-22T03:16:59.745Z,930.51
2019-04-22T03:18:09.931Z,930.48
2019-04-22T03:19:13.869Z,930.48
2019-04-22T03:20:04.152Z,930.51
2019-04-22T03:21:02.237Z,930.50
2019-04-22T03:22:00.495Z,930.52
2019-04-22T03:23:16.525Z,930.47
2019-04-22T03:24:17.990Z,930.48
2019-04-22T03:25:40.853Z,930.44
2019-04-22T03:26:11.509Z,930.51
2019-04-22T03:27:00.827Z,930.43
2019-04-22T03:28:23.659Z,930.42
2019-04-22T03:29:10.794Z,930.40
2019-04-22T03:31:03.686Z,930.31
2019-04-22T03:32:33.441Z,930.36
2019-04-22T03:33:12.195Z,930.31
2019-04-22T03:36:06.536Z,930.35
2019-04-22T03:37:56.171Z,930.33
2019-04-22T03:40:14.403Z,930.26
2019-04-22T03:41:05.724Z,930.27
2019-04-22T03:43:11.186Z,930.24
2019-04-22T03:45:10.210Z,930.29
2019-04-22T03:46:01.665Z,930.29
2019-04-22T03:48:04.657Z,930.29
2019-04-22T03:49:34.772Z,930.28
2019-04-22T03:51:12.033Z,930.26
2019-04-22T03:52:16.322Z,930.25
2019-04-22T03:54:10.511Z,930.18
2019-04-22T03:55:15.716Z,930.17
2019-04-22T03:56:02.398Z,930.18
2019-04-22T03:58:03.704Z,930.18
2019-04-22T03:59:07.680Z,930.19
2019-04-22T04:00:15.750Z,930.19
2019-04-22T04:03:07.075Z,930.17
2019-04-22T04:05:05.315Z,930.17
2019-04-22T04:06:00.209Z,930.15
2019-04-22T04:08:04.915Z,930.16
2019-04-22T04:09:14.345Z,930.16
2019-04-22T04:10:10.241Z,930.14
2019-04-22T04:12:03.949Z,930.06
2019-04-22T04:13:12.237Z,930.12
2019-04-22T04:14:09.317Z,930.08
2019-04-22T04:15:21.289Z,930.08
2019-04-22T04:15:57.764Z,930.11
2019-04-22T04:17:02.358Z,930.10
2019-04-22T04:19:07.857Z,930.06
2019-04-22T04:21:22.849Z,930.05
2019-04-22T04:22:08.049Z,930.07
2019-04-22T04:23:10.460Z,930.03
2019-04-22T04:24:42.231Z,930.03
2019-04-22T04:26:05.082Z,930.00
2019-04-22T04:27:39.890Z,929.99
2019-04-22T04:28:24.320Z,930.06
2019-04-22T04:29:22.092Z,930.03
2019-04-22T04:30:18.925Z,930.03
2019-04-22T04:30:59.795Z,930.06
2019-04-22T04:32:20.549Z,930.02
2019-04-22T04:34:04.454Z,930.03
2019-04-22T04:36:02.750Z,930.03
2019-04-22T04:38:17.233Z,930.07
2019-04-22T04:39:07.403Z,930.08
2019-04-22T04:41:06.912Z,930.06
2019-04-22T04:43:00.972Z,930.04
2019-04-22T04:46:30.291Z,930.03
2019-04-22T04:47:13.636Z,930.01
2019-04-22T04:52:06.609Z,930.05
2019-04-22T04:54:13.224Z,930.04
2019-04-22T04:55:11.907Z,930.08
2019-04-22T04:56:01.917Z,930.09
2019-04-22T04:56:57.083Z,930.16
2019-04-22T05:00:32.046Z,930.07
2019-04-22T05:01:11.201Z,930.05
2019-04-22T05:02:02.385Z,930.06
2019-04-22T05:03:13.877Z,930.07
2019-04-22T05:04:04.396Z,930.05
2019-04-22T05:05:12.081Z,930.08
2019-04-22T05:06:05.913Z,930.07
2019-04-22T05:07:09.204Z,930.04
2019-04-22T05:10:17.104Z,930.07
2019-04-22T05:12:25.291Z,930.00
2019-04-22T05:13:16.670Z,930.05
2019-04-22T05:14:06.094Z,930.02
2019-04-22T05:15:08.584Z,930.01
2019-04-22T05:16:17.490Z,930.05
2019-04-22T05:17:10.956Z,929.98
2019-04-22T05:18:58.700Z,929.96
2019-04-22T05:20:05.170Z,930.04
2019-04-22T05:22:02.385Z,929.95
2019-04-22T05:23:16.223Z,929.96
2019-04-22T05:24:02.442Z,929.96
2019-04-22T05:25:02.907Z,929.97
2019-04-22T05:26:02.900Z,929.95
2019-04-22T05:27:10.635Z,929.94
2019-04-22T05:28:01.562Z,929.94
2019-04-22T05:28:57.907Z,929.97
2019-04-22T05:30:20.616Z,929.97
2019-04-22T05:30:57.263Z,929.96
2019-04-22T05:31:56.961Z,929.93
2019-04-22T05:32:58.832Z,929.90
2019-04-22T05:33:56.743Z,929.88
2019-04-22T05:34:53.003Z,929.84
2019-04-22T05:35:53.582Z,929.87
2019-04-22T05:36:58.917Z,929.88
2019-04-22T05:38:02.711Z,929.90
2019-04-22T05:40:06.551Z,929.81
2019-04-22T05:40:56.080Z,929.82
2019-04-22T05:41:54.994Z,929.78
2019-04-22T05:42:57.159Z,929.74
2019-04-22T05:44:00.166Z,929.79
2019-04-22T05:44:55.561Z,929.79
2019-04-22T05:45:50.946Z,929.74
2019-04-22T05:46:53.918Z,929.74
2019-04-22T05:47:56.216Z,929.71
2019-04-22T05:49:14.957Z,929.73
2019-04-22T05:49:55.161Z,929.71
2019-04-22T05:51:55.009Z,929.66
2019-04-22T05:52:55.286Z,929.66
2019-04-22T05:53:58.982Z,929.68
2019-04-22T05:54:57.675Z,929.66
2019-04-22T05:55:57.131Z,929.70
2019-04-22T05:56:51.705Z,929.69
2019-04-22T05:57:59.161Z,929.71
2019-04-22T05:58:58.606Z,929.67
2019-04-22T06:00:04.014Z,929.68
2019-04-22T06:01:26.538Z,929.62
2019-04-22T06:02:01.271Z,929.64
2019-04-22T06:02:57.186Z,929.65
2019-04-22T06:04:04.335Z,929.66
2019-04-22T06:05:01.796Z,929.58
2019-04-22T06:05:55.140Z,929.56
2019-04-22T06:06:57.169Z,929.54
2019-04-22T06:07:53.816Z,929.54
2019-04-22T06:09:02.831Z,929.56
2019-04-22T06:10:02.352Z,929.55
2019-04-22T06:11:51.739Z,929.56
2019-04-22T06:12:52.410Z,929.56
2019-04-22T06:13:51.711Z,929.58
2019-04-22T06:14:54.026Z,929.56
2019-04-22T06:15:54.318Z,929.59
2019-04-22T06:16:57.192Z,929.59
2019-04-22T06:18:07.664Z,929.61
2019-04-22T06:19:00.368Z,929.64
2019-04-22T06:19:52.882Z,929.60
2019-04-22T06:21:03.697Z,929.61
2019-04-22T06:22:16.944Z,929.65
2019-04-22T06:22:58.478Z,929.63
2019-04-22T06:24:55.272Z,929.62
2019-04-22T06:24:55.392Z,929.60
2019-04-22T06:27:01.556Z,929.61
2019-04-22T06:28:00.259Z,929.58
2019-04-22T06:28:56.861Z,929.62
2019-04-22T06:29:55.341Z,929.56
2019-04-22T06:30:57.589Z,929.53
2019-04-22T06:32:17.472Z,929.56
2019-04-22T06:33:01.164Z,929.53
2019-04-22T06:34:06.022Z,929.53
2019-04-22T06:34:58.931Z,929.51
2019-04-22T06:36:00.487Z,929.54
2019-04-22T06:37:05.091Z,929.54
2019-04-22T06:38:57.127Z,929.49
2019-04-22T06:39:55.406Z,929.50
2019-04-22T06:40:54.241Z,929.51
2019-04-22T06:41:56.183Z,929.48
2019-04-22T06:43:01.068Z,929.50
2019-04-22T06:43:58.453Z,929.46
2019-04-22T06:45:02.774Z,929.46
2019-04-22T06:45:57.695Z,929.46
2019-04-22T06:46:52.254Z,929.46
2019-04-22T06:48:12.857Z,929.46
2019-04-22T06:48:59.853Z,929.46
2019-04-22T06:49:55.476Z,929.43
2019-04-22T06:50:56.817Z,929.41
2019-04-22T06:51:56.753Z,929.48
2019-04-22T06:52:56.902Z,929.40
2019-04-22T06:53:55.699Z,929.39
2019-04-22T06:54:54.761Z,929.40
2019-04-22T06:55:51.329Z,929.36
2019-04-22T06:56:57.761Z,929.37
2019-04-22T06:57:52.660Z,929.36
2019-04-22T06:58:55.080Z,929.34
2019-04-22T07:00:00.518Z,929.30
2019-04-22T07:00:52.132Z,929.31
2019-04-22T07:01:54.759Z,929.28
2019-04-22T07:03:23.379Z,929.29
2019-04-22T07:03:53.478Z,929.36
2019-04-22T07:04:58.325Z,929.29
2019-04-22T07:05:52.443Z,929.30
2019-04-22T07:07:02.275Z,929.31
2019-04-22T07:08:02.690Z,929.29
2019-04-22T07:10:04.022Z,929.25
2019-04-22T07:10:50.809Z,929.23
2019-04-22T07:11:43.384Z,929.23
2019-04-22T07:12:53.928Z,929.19
2019-04-22T07:13:57.337Z,929.21
2019-04-22T07:14:53.496Z,929.22
2019-04-22T07:16:00.138Z,929.20
2019-04-22T07:17:00.576Z,929.23
2019-04-22T07:17:58.394Z,929.22
2019-04-22T07:18:56.877Z,929.17
2019-04-22T07:19:51.178Z,929.17
2019-04-22T07:20:56.370Z,929.17
2019-04-22T07:21:57.714Z,929.19
2019-04-22T07:22:51.499Z,929.13
2019-04-22T07:24:03.190Z,929.17
2019-04-22T07:24:53.869Z,929.16
2019-04-22T07:25:52.126Z,929.18
2019-04-22T07:26:53.672Z,929.20
2019-04-22T07:27:52.582Z,929.15
2019-04-22T07:30:56.261Z,929.11
2019-04-22T07:31:54.708Z,929.12
2019-04-22T07:33:55.543Z,929.10
2019-04-22T07:34:52.792Z,929.09
2019-04-22T07:36:11.038Z,929.11
2019-04-22T07:37:15.769Z,929.08
2019-04-22T07:37:47.098Z,929.11
2019-04-22T07:38:52.714Z,929.11
2019-04-22T07:39:50.259Z,929.08
2019-04-22T07:40:57.069Z,929.10
2019-04-22T07:41:51.685Z,929.08
2019-04-22T07:42:57.076Z,929.06
2019-04-22T07:44:07.416Z,929.06
2019-04-22T07:44:54.837Z,929.08
2019-04-22T07:45:56.563Z,929.06
2019-04-22T07:46:59.338Z,929.03
2019-04-22T07:48:04.703Z,929.03
2019-04-22T07:48:53.631Z,929.05
2019-04-22T07:50:12.850Z,929.04
2019-04-22T07:51:07.504Z,929.02
2019-04-22T07:51:50.125Z,929.06
2019-04-22T07:52:52.085Z,929.04
2019-04-22T07:54:00.078Z,929.04
2019-04-22T07:54:53.034Z,929.06
2019-04-22T07:55:54.981Z,929.03
2019-04-22T07:57:06.297Z,928.97
2019-04-22T07:57:55.863Z,929.01
2019-04-22T07:58:58.811Z,928.94
2019-04-22T07:59:59.563Z,928.95
2019-04-22T08:00:57.334Z,928.97
2019-04-22T08:01:53.639Z,928.88
2019-04-22T08:03:58.747Z,928.90
2019-04-22T08:05:05.372Z,928.87
2019-04-22T08:06:57.307Z,928.85
2019-04-22T08:08:00.910Z,928.84
2019-04-22T08:09:00.289Z,928.77
2019-04-22T08:09:59.740Z,928.81
2019-04-22T08:11:06.844Z,928.85
2019-04-22T08:12:02.985Z,928.85
2019-04-22T08:12:51.916Z,928.79
2019-04-22T08:13:54.947Z,928.78
2019-04-22T08:14:52.575Z,928.77
2019-04-22T08:15:53.778Z,928.75
2019-04-22T08:17:01.500Z,928.77
2019-04-22T08:18:55.838Z,928.71
2019-04-22T08:19:59.225Z,928.67
2019-04-22T08:20:56.599Z,928.67
2019-04-22T08:21:59.971Z,928.66
2019-04-22T08:23:01.120Z,928.60
2019-04-22T08:23:58.619Z,928.61
2019-04-22T08:24:57.791Z,928.62
2019-04-22T08:26:04.987Z,928.62
2019-04-22T08:26:56.464Z,928.63
2019-04-22T08:28:01.660Z,928.63
2019-04-22T08:29:03.676Z,928.60
2019-04-22T08:30:00.110Z,928.57
2019-04-22T08:30:56.693Z,928.56
2019-04-22T08:31:55.425Z,928.56
2019-04-22T08:32:53.176Z,928.58
2019-04-22T08:33:54.345Z,928.56
2019-04-22T08:34:47.415Z,928.56
2019-04-22T08:37:24.169Z,928.55
2019-04-22T08:40:04.537Z,928.48
2019-04-22T08:40:56.142Z,928.49
2019-04-22T08:41:43.580Z,928.48
2019-04-22T08:42:57.661Z,928.47
2019-04-22T08:43:57.659Z,928.48
2019-04-22T08:45:07.771Z,928.45
2019-04-22T08:46:06.188Z,928.47
2019-04-22T08:46:57.912Z,928.44
2019-04-22T08:47:47.859Z,928.44
2019-04-22T08:50:06.029Z,928.44
2019-04-22T08:50:50.775Z,928.43
2019-04-22T08:51:48.877Z,928.43
2019-04-22T08:52:58.643Z,928.42
2019-04-22T08:54:58.280Z,928.43
2019-04-22T08:55:56.729Z,928.39
2019-04-22T08:58:13.368Z,928.39
2019-04-22T08:58:56.787Z,928.39
2019-04-22T08:59:59.571Z,928.42
2019-04-22T09:00:57.221Z,928.40
2019-04-22T09:01:49.165Z,928.40
2019-04-22T09:02:53.973Z,928.38
2019-04-22T09:03:58.553Z,928.35
2019-04-22T09:04:53.987Z,928.35
2019-04-22T09:06:12.460Z,928.35
2019-04-22T09:07:12.517Z,928.34
2019-04-22T09:07:54.705Z,928.32
2019-04-22T09:08:55.209Z,928.31
2019-04-22T09:09:54.092Z,928.32
2019-04-22T09:10:57.350Z,928.29
2019-04-22T09:11:54.661Z,928.24
2019-04-22T09:13:03.623Z,928.27
2019-04-22T09:13:55.777Z,928.27
2019-04-22T09:15:08.296Z,928.30
2019-04-22T09:15:48.777Z,928.27
2019-04-22T09:16:48.497Z,928.28
2019-04-22T09:17:55.860Z,928.26
2019-04-22T09:18:56.174Z,928.27
2019-04-22T09:19:58.306Z,928.28
2019-04-22T09:21:01.340Z,928.24
2019-04-22T09:21:56.018Z,928.25
2019-04-22T09:22:56.476Z,928.23
2019-04-22T09:24:00.673Z,928.20
2019-04-22T09:24:55.197Z,928.19
2019-04-22T09:25:57.573Z,928.20
2019-04-22T09:26:55.667Z,928.15
2019-04-22T09:27:49.796Z,928.11
2019-04-22T09:29:50.080Z,928.14
2019-04-22T09:30:55.267Z,928.16
2019-04-22T09:32:03.937Z,928.11
2019-04-22T09:32:55.772Z,928.08
2019-04-22T09:33:49.102Z,928.05
2019-04-22T09:34:51.496Z,928.10
2019-04-22T09:36:58.646Z,928.03
2019-04-22T09:38:00.279Z,928.03
2019-04-22T09:39:12.281Z,927.99
2019-04-22T09:40:01.073Z,927.99
2019-04-22T09:40:51.817Z,927.98
2019-04-22T09:41:51.186Z,927.96
2019-04-22T09:45:52.879Z,927.89
2019-04-22T09:46:52.291Z,927.89
2019-04-22T09:47:56.746Z,927.87
2019-04-22T09:48:59.035Z,927.85
2019-04-22T09:49:56.628Z,927.86
2019-04-22T09:50:52.606Z,927.79
2019-04-22T09:51:55.414Z,927.81
2019-04-22T09:52:54.645Z,927.77
2019-04-22T09:54:01.026Z,927.78
2019-04-22T09:55:01.646Z,927.81
2019-04-22T09:55:51.631Z,927.75
2019-04-22T09:56:51.771Z,927.74
2019-04-22T09:57:52.468Z,927.77
2019-04-22T09:59:59.471Z,927.79
2019-04-22T10:01:02.989Z,927.75
2019-04-22T10:02:08.151Z,927.74
2019-04-22T10:03:00.411Z,927.76
2019-04-22T10:04:57.311Z,927.72
2019-04-22T10:06:07.512Z,927.72
2019-04-22T10:06:48.446Z,927.71
2019-04-22T10:07:54.350Z,927.70
2019-04-22T10:10:09.058Z,927.67
2019-04-22T10:10:57.314Z,927.64
2019-04-22T10:11:51.096Z,927.66
2019-04-22T10:12:46.618Z,927.66
2019-04-22T10:13:53.636Z,927.62
2019-04-22T10:14:49.643Z,927.63
2019-04-22T10:15:58.968Z,927.56
2019-04-22T10:16:51.862Z,927.59
2019-04-22T10:17:54.039Z,927.50
2019-04-22T10:18:53.027Z,927.51
2019-04-22T10:19:57.886Z,927.48
2019-04-22T10:20:54.457Z,927.51
2019-04-22T10:22:51.810Z,927.47
2019-04-22T10:23:54.687Z,927.46
2019-04-22T10:24:55.286Z,927.42
2019-04-22T10:25:52.318Z,927.38
2019-04-22T10:26:55.202Z,927.37
2019-04-22T10:27:59.900Z,927.36
2019-04-22T10:30:06.101Z,927.32
2019-04-22T10:30:52.238Z,927.39
2019-04-22T10:32:47.572Z,927.38
2019-04-22T10:33:46.406Z,927.33
2019-04-22T10:34:34.793Z,927.30
2019-04-22T10:35:28.797Z,927.32
2019-04-22T10:36:25.717Z,927.24
2019-04-22T10:37:25.747Z,927.25
2019-04-22T10:38:26.471Z,927.24
2019-04-22T10:39:37.816Z,927.23
2019-04-22T10:40:27.979Z,927.14
2019-04-22T10:41:26.332Z,927.11
2019-04-22T10:42:27.036Z,927.09
2019-04-22T10:43:25.571Z,927.07
2019-04-22T10:44:26.870Z,927.04
2019-04-22T10:45:26.058Z,927.02
2019-04-22T10:46:26.349Z,927.00
2019-04-22T10:47:25.791Z,926.96
2019-04-22T10:48:26.204Z,926.98
2019-04-22T10:49:26.622Z,926.90
2019-04-22T10:50:25.502Z,926.98
2019-04-22T10:51:26.547Z,926.97
2019-04-22T10:52:25.672Z,926.94
2019-04-22T10:53:25.797Z,926.91
2019-04-22T10:54:25.454Z,926.89
2019-04-22T10:55:25.509Z,926.83
2019-04-22T10:56:25.451Z,926.84
2019-04-22T10:57:25.641Z,926.79
2019-04-22T10:58:26.674Z,926.79
2019-04-22T10:59:26.809Z,926.75
2019-04-22T11:00:25.373Z,926.69
2019-04-22T11:01:25.696Z,926.72
2019-04-22T11:02:25.688Z,926.69
2019-04-22T11:03:26.606Z,926.68
2019-04-22T11:04:25.948Z,926.66
2019-04-22T11:05:26.174Z,926.69
2019-04-22T11:06:25.469Z,926.61
2019-04-22T11:07:35.988Z,926.67
2019-04-22T11:08:34.560Z,926.59
2019-04-22T11:09:27.066Z,926.61
2019-04-22T11:10:41.326Z,926.62
2019-04-22T11:11:41.124Z,926.57
2019-04-22T11:12:28.874Z,926.52
2019-04-22T11:13:26.273Z,926.54
2019-04-22T11:14:26.538Z,926.46
2019-04-22T11:15:26.481Z,926.50
2019-04-22T11:16:25.684Z,926.52
2019-04-22T11:17:25.986Z,926.47
2019-04-22T11:18:25.403Z,926.49
2019-04-22T11:19:25.606Z,926.53
2019-04-22T11:20:26.018Z,926.44
2019-04-22T11:21:25.484Z,926.47
2019-04-22T11:22:31.202Z,926.44
2019-04-22T11:23:27.149Z,926.42
2019-04-22T11:24:26.466Z,926.40
2019-04-22T11:25:25.553Z,926.41
2019-04-22T11:26:25.916Z,926.37
2019-04-22T11:27:25.411Z,926.36
2019-04-22T11:28:25.575Z,926.35
2019-04-22T11:29:25.550Z,926.38
2019-04-22T11:30:27.966Z,926.37
2019-04-22T11:31:26.339Z,926.31
2019-04-22T11:32:26.476Z,926.31
2019-04-22T11:33:25.007Z,926.21
2019-04-22T11:34:25.059Z,926.32
2019-04-22T11:35:25.775Z,926.29
2019-04-22T11:36:28.693Z,926.26
2019-04-22T11:37:25.961Z,926.21
2019-04-22T11:38:24.963Z,926.25
2019-04-22T11:39:26.283Z,926.23
2019-04-22T11:40:32.618Z,926.19
2019-04-22T11:41:26.034Z,926.18
2019-04-22T11:42:25.934Z,926.16
2019-04-22T11:43:26.158Z,926.12
2019-04-22T11:44:25.364Z,926.12
2019-04-22T11:45:24.876Z,926.11
2019-04-22T11:46:25.401Z,926.08
2019-04-22T11:47:25.554Z,926.10
2019-04-22T11:48:24.854Z,926.06
2019-04-22T11:49:25.880Z,926.05
2019-04-22T11:50:26.128Z,926.06
2019-04-22T11:51:24.808Z,926.06
2019-04-22T11:52:24.828Z,926.09
2019-04-22T11:53:24.959Z,926.00
2019-04-22T11:54:25.128Z,926.03
2019-04-22T11:55:24.779Z,926.02
2019-04-22T11:56:25.172Z,925.98
2019-04-22T11:57:25.349Z,925.97
2019-04-22T11:58:24.784Z,926.02
2019-04-22T11:59:24.991Z,926.07
2019-04-22T12:00:25.080Z,926.01
2019-04-22T12:01:24.740Z,925.99
2019-04-22T12:02:25.405Z,925.93
2019-04-22T12:03:25.343Z,925.91
2019-04-22T12:04:25.722Z,925.87
2019-04-22T12:05:25.968Z,925.89
2019-04-22T12:06:26.088Z,925.86
2019-04-22T12:07:24.685Z,925.88
2019-04-22T12:08:25.129Z,925.87
2019-04-22T12:09:25.734Z,925.81
2019-04-22T12:10:33.012Z,925.82
2019-04-22T12:11:26.296Z,925.80
2019-04-22T12:12:25.581Z,925.71
2019-04-22T12:13:26.059Z,925.76
2019-04-22T12:14:25.651Z,925.73
2019-04-22T12:15:24.730Z,925.74
2019-04-22T12:16:25.497Z,925.80
2019-04-22T12:17:24.536Z,925.75
2019-04-22T12:18:24.904Z,925.69
2019-04-22T12:19:25.229Z,925.77
2019-04-22T12:20:25.492Z,925.73
2019-04-22T12:21:24.475Z,925.71
2019-04-22T12:22:25.123Z,925.67
2019-04-22T12:23:25.163Z,925.70
2019-04-22T12:24:25.097Z,925.66
2019-04-22T12:25:38.962Z,925.61
2019-04-22T12:26:26.907Z,925.62
2019-04-22T12:27:28.012Z,925.59
2019-04-22T12:28:24.431Z,925.65
2019-04-22T12:29:24.856Z,925.65
2019-04-22T12:30:25.587Z,925.66
2019-04-22T12:31:24.363Z,925.64
2019-04-22T12:32:25.365Z,925.65
2019-04-22T12:33:25.261Z,925.60
2019-04-22T12:34:25.657Z,925.62
2019-04-22T12:35:24.487Z,925.60
2019-04-22T12:36:24.642Z,925.59
2019-04-22T12:37:34.272Z,925.55
2019-04-22T12:38:25.347Z,925.52
2019-04-22T12:39:25.372Z,925.50
2019-04-22T12:40:33.861Z,925.46
2019-04-22T12:41:25.857Z,925.47
2019-04-22T12:42:24.260Z,925.49
2019-04-22T12:43:26.071Z,925.39
2019-04-22T12:44:24.495Z,925.41
2019-04-22T12:45:24.611Z,925.39
2019-04-22T12:46:24.213Z,925.39
2019-04-22T12:47:24.432Z,925.38
2019-04-22T12:48:25.429Z,925.38
2019-04-22T12:49:24.167Z,925.33
2019-04-22T12:50:30.059Z,925.33
2019-04-22T12:51:25.241Z,925.28
2019-04-22T12:52:34.225Z,925.29
2019-04-22T12:53:27.659Z,925.23
2019-04-22T12:54:24.630Z,925.20
2019-04-22T12:55:24.104Z,925.17
2019-04-22T12:56:25.678Z,925.12
2019-04-22T12:57:24.875Z,925.15
2019-04-22T12:58:25.465Z,925.12
2019-04-22T12:59:25.248Z,925.13
2019-04-22T13:00:24.718Z,925.09
2019-04-22T13:01:24.685Z,925.15
2019-04-22T13:02:25.152Z,925.15
2019-04-22T13:03:24.523Z,925.10
2019-04-22T13:04:25.228Z,925.05
2019-04-22T13:05:25.033Z,925.04
2019-04-22T13:06:23.987Z,925.05
2019-04-22T13:07:24.157Z,925.10
2019-04-22T13:08:25.365Z,925.02
2019-04-22T13:09:25.212Z,924.97
2019-04-22T13:10:24.191Z,925.02
2019-04-22T13:11:28.804Z,924.97
2019-04-22T13:12:24.934Z,924.96
2019-04-22T13:13:25.084Z,924.95
2019-04-22T13:14:25.102Z,924.99
2019-04-22T13:15:23.959Z,924.90
2019-04-22T13:16:25.016Z,924.92
2019-04-22T13:17:24.964Z,924.90
2019-04-22T13:18:34.003Z,924.91
2019-04-22T13:19:26.777Z,924.89
2019-04-22T13:20:24.303Z,924.88
2019-04-22T13:21:24.633Z,924.91
2019-04-22T13:22:25.040Z,924.83
2019-04-22T13:23:23.813Z,924.85
2019-04-22T13:24:23.886Z,924.76
2019-04-22T13:25:27.972Z,924.80
2019-04-22T13:26:25.443Z,924.75
2019-04-22T13:27:24.790Z,924.74
2019-04-22T13:28:25.214Z,924.78
2019-04-22T13:29:25.129Z,924.79
2019-04-22T13:30:23.741Z,924.74
2019-04-22T13:31:24.539Z,924.72
2019-04-22T13:32:25.001Z,924.62
2019-04-22T13:33:24.970Z,924.65
2019-04-22T13:34:32.957Z,924.70
2019-04-22T13:35:26.096Z,924.75
2019-04-22T13:36:25.573Z,924.71
2019-04-22T13:37:25.241Z,924.69
2019-04-22T13:38:24.977Z,924.69
2019-04-22T13:39:24.957Z,924.72
2019-04-22T13:40:23.615Z,924.69
2019-04-22T13:41:31.728Z,924.68
2019-04-22T13:42:25.458Z,924.64
2019-04-22T13:43:24.911Z,924.66
2019-04-22T13:44:25.021Z,924.63
2019-04-22T13:45:23.580Z,924.59
2019-04-22T13:46:24.054Z,924.68
2019-04-22T13:47:42.073Z,924.59
2019-04-22T13:48:46.898Z,924.58
2019-04-22T13:50:01.085Z,924.57
2019-04-22T13:51:56.449Z,924.54
2019-04-22T13:52:56.291Z,924.49
2019-04-22T13:54:14.446Z,924.49
2019-04-22T13:54:53.385Z,924.51
2019-04-22T13:55:51.506Z,924.50
2019-04-22T13:56:46.547Z,924.51